< Typhoon 195825 1958 Season Typhoon 195827 >
Typhoon 195826 (LORNA)
General InformationTrack Information on Google Maps || Disaster Info.ResourceGoogle EarthGE AnimationAtom FeedGeoJSON
Detalied Best Track (Time Zone = UTC)
Year Month Day Hour Lat. Long. Pressure (hPa) Wind (kt) Class Image Chart
1958 10 22 12 11.0 148.0 1006 0 2 -- Chart
1958 10 22 18 11.7 147.0 1002 0 2 -- Chart
1958 10 23 00 12.2 145.9 1002 0 2 -- Chart
1958 10 23 06 12.5 144.8 1002 0 2 -- Chart
1958 10 23 12 12.7 143.8 1002 0 2 -- Chart
1958 10 23 18 13.0 142.6 1002 0 2 -- Chart
1958 10 24 00 13.3 141.5 1000 0 9 -- Chart
1958 10 24 06 13.3 140.2 998 0 9 -- Chart
1958 10 24 12 13.2 139.2 998 0 9 -- Chart
1958 10 24 18 13.1 138.7 998 0 9 -- Chart
1958 10 25 00 12.8 137.7 998 0 9 -- Chart
1958 10 25 06 12.9 136.4 998 0 9 -- Chart
1958 10 25 12 13.2 135.3 998 0 9 -- Chart
1958 10 25 18 13.4 134.5 998 0 9 -- Chart
1958 10 26 00 13.6 133.7 998 0 9 -- Chart
1958 10 26 06 13.7 132.8 997 0 9 -- Chart
1958 10 26 12 13.7 131.8 997 0 9 -- Chart
1958 10 26 18 13.8 130.8 998 0 9 -- Chart
1958 10 27 00 13.8 129.8 998 0 9 -- Chart
1958 10 27 06 13.9 129.2 998 0 9 -- Chart
1958 10 27 12 13.9 128.3 998 0 9 -- Chart
1958 10 27 18 13.8 127.6 998 0 9 -- Chart
1958 10 28 00 13.8 126.9 995 0 9 -- Chart
1958 10 28 06 13.8 126.4 990 0 9 -- Chart
1958 10 28 12 13.9 125.9 980 0 9 -- Chart
1958 10 28 18 14.1 125.4 970 0 9 -- Chart
1958 10 29 00 14.5 125.0 970 0 9 -- Chart
1958 10 29 06 15.5 125.5 965 0 9 -- Chart
1958 10 29 12 16.0 125.6 965 0 9 -- Chart
1958 10 29 18 16.7 125.7 965 0 9 -- Chart
1958 10 30 00 17.2 126.2 960 0 9 -- Chart
1958 10 30 06 17.7 126.7 950 0 9 -- Chart
1958 10 30 12 18.2 127.1 940 0 9 -- Chart
1958 10 30 18 19.0 127.6 945 0 9 -- Chart
1958 10 31 00 19.8 128.1 950 0 9 -- Chart
1958 10 31 06 21.1 129.0 950 0 9 -- Chart
1958 10 31 12 22.3 129.8 950 0 9 -- Chart
1958 10 31 18 23.5 130.5 950 0 9 -- Chart
1958 11 1 00 24.8 131.6 955 0 9 -- Chart
1958 11 1 06 26.0 132.5 960 0 9 -- Chart
1958 11 1 12 27.2 133.5 970 0 9 -- Chart
1958 11 1 18 27.8 134.6 970 0 9 -- Chart
1958 11 2 00 27.8 135.3 980 0 9 -- Chart
1958 11 2 06 27.8 136.5 985 0 9 -- Chart
1958 11 2 12 27.7 137.7 985 0 9 -- Chart
1958 11 2 18 27.8 139.2 985 0 9 -- Chart
1958 11 3 00 28.8 140.7 985 0 9 -- Chart
1958 11 3 06 29.5 141.5 985 0 9 -- Chart
1958 11 3 12 30.3 143.0 990 0 9 -- Chart
1958 11 3 18 31.0 145.0 995 0 6 -- Chart
1958 11 4 00 32.8 148.0 1000 0 6 -- Chart
1958 11 4 06 33.8 150.6 1000 0 6 -- Chart
1958 11 4 12 35.0 153.2 1000 0 6 -- Chart
1958 11 4 18 36.0 156.5 1000 0 6 -- Chart
1958 11 5 00 36.0 165.0 1002 0 6 -- Chart
1958 11 5 06 37.0 170.0 1000 0 6 -- Chart
1958 11 5 12 36.8 172.5 1000 0 6 -- Chart
1958 11 5 18 36.2 175.2 1000 0 6 -- Chart
1958 11 6 00 36.0 178.0 1000 0 6 -- Chart
1958 11 6 06 35.3 180.7 1006 0 6 -- Chart
Japan Meteorological Agency Best Track Data | Correction Date : 1989-06-01
< Typhoon 195825 1958 Season Typhoon 195827 >

Help